Undaunted — WDB8103 — position and weather

sailwx.info

Track history (hours):
 
Tides and Currents Weather Stations Pressure Air Temp Water Temp Dewpoint Dewpoint Depression Visibility Wind Speed Wind Dir Waves Ship Positions

Undaunted

Owner: PERE MARQUETTE SHIPPING COMPANY, LUDINGTON, MI. More information available from US FCC via Universal Licensing System and Coast Guard Vessel Documentation Center.

Last reported at 2017-Nov-18 10:51 UTC. Time now 2017-Nov-19 08:29 UTC.
Position N 45°53' W 085°45'.

Length 24 m; draft 6 m.

Type: Cargo ship. MMSI: 366780000.

Date/timePositionNaut miles runAvg speedWind from/ knotsBaromVisibWave heightAir tempDewpointWater temp
2017-Nov-18 10:51N 45°53' W 085°45'3 7.6
2017-Nov-18 10:30N 45°53' W 085°41'4 7.6
2017-Nov-18 09:59N 45°53' W 085°35'4 7.6
2017-Nov-18 09:30N 45°53' W 085°30'4 7.6
2017-Nov-18 09:00N 45°53' W 085°24'4 7.6
2017-Nov-18 08:30N 45°52' W 085°19'4 7.5
2017-Nov-18 08:00N 45°52' W 085°14'4 7.4
2017-Nov-18 07:30N 45°51' W 085°08'4 7.6
2017-Nov-18 07:00N 45°50' W 085°03'4 8.0
2017-Nov-18 06:30N 45°48' W 084°58'4 7.9
2017-Nov-18 06:00N 45°47' W 084°53'2 3.6
2017-Nov-18 05:30N 45°46' W 084°51'0 0.0
2017-Nov-18 04:55N 45°46' W 084°51'0 0.0
2017-Nov-18 04:19N 45°46' W 084°51'0 0.0
2017-Nov-18 03:55N 45°46' W 084°51'0 0.0
2017-Nov-18 03:25N 45°46' W 084°51'0 0.0
2017-Nov-18 02:55N 45°46' W 084°51'0 0.0
2017-Nov-18 02:25N 45°46' W 084°51'0 0.0
2017-Nov-18 01:55N 45°46' W 084°51'0 0.0
2017-Nov-18 01:19N 45°46' W 084°51'0 0.0
2017-Nov-18 00:55N 45°46' W 084°51'0 0.0
2017-Nov-18 00:25N 45°46' W 084°51'0 0.0
2017-Nov-17 23:55N 45°46' W 084°51'0 0.0
2017-Nov-17 23:25N 45°46' W 084°51'0 0.0
2017-Nov-17 22:55N 45°46' W 084°51'0 0.0
2017-Nov-17 22:25N 45°46' W 084°51'0 0.0
2017-Nov-17 21:55N 45°46' W 084°51'0 0.0
2017-Nov-17 21:25N 45°46' W 084°51'0 0.0
2017-Nov-17 20:55N 45°46' W 084°51'0 0.0
2017-Nov-17 20:25N 45°46' W 084°51'0 0.0
2017-Nov-17 19:55N 45°46' W 084°51'0 0.0
2017-Nov-17 19:25N 45°46' W 084°51'0 0.0
2017-Nov-17 18:55N 45°46' W 084°51'0 0.0
2017-Nov-17 18:25N 45°46' W 084°50'0 0.0
2017-Nov-17 17:55N 45°46' W 084°50'0 0.0
2017-Nov-17 17:25N 45°46' W 084°50'1 1.7
2017-Nov-17 17:00N 45°47' W 084°50'4 8.0
2017-Nov-17 16:30N 45°49' W 084°45'4 8.7
2017-Nov-17 15:59N 45°50' W 084°39'9 0.3
2017-Nov-16 09:48N 45°53' W 084°27'3 9.6
2017-Nov-16 09:30N 45°52' W 084°31'5 9.8
2017-Nov-16 09:00N 45°50' W 084°37'510.4
2017-Nov-16 08:30N 45°49' W 084°45'510.4
2017-Nov-16 08:00N 45°52' W 084°51'510.2
2017-Nov-16 07:30N 45°54' W 084°58'510.3
2017-Nov-16 07:00N 45°55' W 085°05'510.2
2017-Nov-16 06:30N 45°57' W 085°12'15 8.1
2017-Nov-16 04:36N 45°57' W 085°34'  
Track history (hours):
 
Tides and Currents Weather Stations Pressure Air Temp Water Temp Dewpoint Dewpoint Depression Visibility Wind Speed Wind Dir Waves Ship Positions

Undaunted

Owner: PERE MARQUETTE SHIPPING COMPANY, LUDINGTON, MI. More information available from US FCC via Universal Licensing System and Coast Guard Vessel Documentation Center.

Last reported at 2017-Nov-18 10:51 UTC. Time now 2017-Nov-19 08:29 UTC.
Position N 45°53' W 085°45'.

Length 24 m; draft 6 m.

Type: Cargo ship. MMSI: 366780000.

Date/timePositionNaut miles runAvg speedWind from/ knotsBaromVisibWave heightAir tempDewpointWater temp
2017-Nov-18 10:51N 45°53' W 085°45'3 7.6
2017-Nov-18 10:30N 45°53' W 085°41'4 7.6
2017-Nov-18 09:59N 45°53' W 085°35'4 7.6
2017-Nov-18 09:30N 45°53' W 085°30'4 7.6
2017-Nov-18 09:00N 45°53' W 085°24'4 7.6
2017-Nov-18 08:30N 45°52' W 085°19'4 7.5
2017-Nov-18 08:00N 45°52' W 085°14'4 7.4
2017-Nov-18 07:30N 45°51' W 085°08'4 7.6
2017-Nov-18 07:00N 45°50' W 085°03'4 8.0
2017-Nov-18 06:30N 45°48' W 084°58'4 7.9
2017-Nov-18 06:00N 45°47' W 084°53'2 3.6
2017-Nov-18 05:30N 45°46' W 084°51'0 0.0
2017-Nov-18 04:55N 45°46' W 084°51'0 0.0
2017-Nov-18 04:19N 45°46' W 084°51'0 0.0
2017-Nov-18 03:55N 45°46' W 084°51'0 0.0
2017-Nov-18 03:25N 45°46' W 084°51'0 0.0
2017-Nov-18 02:55N 45°46' W 084°51'0 0.0
2017-Nov-18 02:25N 45°46' W 084°51'0 0.0
2017-Nov-18 01:55N 45°46' W 084°51'0 0.0
2017-Nov-18 01:19N 45°46' W 084°51'0 0.0
2017-Nov-18 00:55N 45°46' W 084°51'0 0.0
2017-Nov-18 00:25N 45°46' W 084°51'0 0.0
2017-Nov-17 23:55N 45°46' W 084°51'0 0.0
2017-Nov-17 23:25N 45°46' W 084°51'0 0.0
2017-Nov-17 22:55N 45°46' W 084°51'0 0.0
2017-Nov-17 22:25N 45°46' W 084°51'0 0.0
2017-Nov-17 21:55N 45°46' W 084°51'0 0.0
2017-Nov-17 21:25N 45°46' W 084°51'0 0.0
2017-Nov-17 20:55N 45°46' W 084°51'0 0.0
2017-Nov-17 20:25N 45°46' W 084°51'0 0.0
2017-Nov-17 19:55N 45°46' W 084°51'0 0.0
2017-Nov-17 19:25N 45°46' W 084°51'0 0.0
2017-Nov-17 18:55N 45°46' W 084°51'0 0.0
2017-Nov-17 18:25N 45°46' W 084°50'0 0.0
2017-Nov-17 17:55N 45°46' W 084°50'0 0.0
2017-Nov-17 17:25N 45°46' W 084°50'1 1.7
2017-Nov-17 17:00N 45°47' W 084°50'4 8.0
2017-Nov-17 16:30N 45°49' W 084°45'4 8.7
2017-Nov-17 15:59N 45°50' W 084°39'9 0.3
2017-Nov-16 09:48N 45°53' W 084°27'3 9.6
2017-Nov-16 09:30N 45°52' W 084°31'5 9.8
2017-Nov-16 09:00N 45°50' W 084°37'510.4
2017-Nov-16 08:30N 45°49' W 084°45'510.4
2017-Nov-16 08:00N 45°52' W 084°51'510.2
2017-Nov-16 07:30N 45°54' W 084°58'510.3
2017-Nov-16 07:00N 45°55' W 085°05'510.2
2017-Nov-16 06:30N 45°57' W 085°12'15 8.1
2017-Nov-16 04:36N 45°57' W 085°34'  

Dump ship's entire track history